Terminal Aerodrome Forecast
Issued by NWS Quad Cities IA IL

Home | Current Version | Previous Version | Text Only | Print | Product List | Glossary On
Versions: 1 2 3 4 5 6 7 8 9 10 11 12 13 14 15 16 17 18 19 20
599
FTUS43 KDVN 211357 AAA
TAFMLI
TAF AMD
KMLI 211357Z 2114/2212 VRB05KT P6SM BKN080
      TEMPO 2115/2117 14020G30KT -SHRA BKN040
     FM211700 15015G25KT P6SM BKN110
     FM211900 19013KT P6SM BKN120
     FM220700 VRB15G25KT 4SM -TSRA BKN040CB
     FM220900 25007KT P6SM SCT050=

USA.gov is the U.S. government's official web portal to all federal, state and local government web resources and services.